Time;durP1;ratioP1;P1;durP2;ratioP2;P2;SDS_P1;SDS_P2;PMS_P1;PMS_P2;Temp;Humidity;BMP_temperature;BMP_pressure;BME280_temperature;BME280_humidity;BME280_pressure;Samples;Min_cycle;Max_cycle;Signal;HPM_P1;HPM_P2
2022/12/09 00:00:34;;;;;;;0.95;0.95;;;;;;;3.83;73.45;100137.69;5174352;28;20044;-91
2022/12/09 00:03:04;;;;;;;0.80;0.80;;;;;;;3.89;74.26;100141.97;5153681;28;20124;-90
2022/12/09 00:05:38;;;;;;;1.45;1.35;;;;;;;3.86;74.02;100136.78;5175760;28;20041;-90
2022/12/09 00:08:09;;;;;;;1.00;1.00;;;;;;;3.82;73.80;100129.91;5176763;28;20052;-91
2022/12/09 00:10:42;;;;;;;1.60;1.50;;;;;;;3.79;73.98;100130.81;5177678;28;20210;-90
2022/12/09 00:13:12;;;;;;;0.82;0.82;;;;;;;3.80;74.04;100124.75;5155724;28;20030;-90
2022/12/09 00:15:43;;;;;;;1.20;1.17;;;;;;;3.84;73.75;100113.47;5169484;28;20080;-90
2022/12/09 00:18:13;;;;;;;0.85;0.85;;;;;;;3.76;74.46;100121.28;5169378;28;20033;-90
2022/12/09 00:20:44;;;;;;;0.55;0.55;;;;;;;3.76;74.22;100118.69;5153879;28;20042;-89
2022/12/09 00:23:14;;;;;;;2.45;2.35;;;;;;;3.77;73.94;100114.38;5172482;28;20041;-91
2022/12/09 00:25:45;;;;;;;0.60;0.60;;;;;;;3.73;74.54;100118.75;5176766;28;20131;-90
2022/12/09 00:28:15;;;;;;;1.33;1.33;;;;;;;3.75;74.00;100118.72;5177372;28;20054;-90
2022/12/09 00:30:46;;;;;;;1.23;1.23;;;;;;;3.70;74.51;100110.97;5188710;28;20026;-90
2022/12/09 00:33:16;;;;;;;0.88;0.88;;;;;;;3.67;74.67;100113.63;5175271;28;20030;-90
2022/12/09 00:35:46;;;;;;;2.03;1.85;;;;;;;3.73;75.04;100116.16;5178529;28;20034;-90
2022/12/09 00:38:17;;;;;;;0.85;0.85;;;;;;;3.71;74.43;100117.88;5171596;28;20392;-90
2022/12/09 00:40:47;;;;;;;0.85;0.85;;;;;;;3.73;73.46;100120.47;5173428;28;20029;-91
2022/12/09 00:43:18;;;;;;;2.45;2.30;;;;;;;3.77;74.29;100117.81;5155721;28;20042;-90
2022/12/09 00:45:48;;;;;;;0.40;0.40;;;;;;;3.70;73.87;100113.56;5175387;28;20037;-91
2022/12/09 00:48:19;;;;;;;1.85;1.75;;;;;;;3.71;73.84;100107.50;5170838;28;20661;-90
2022/12/09 00:50:49;;;;;;;1.70;1.48;;;;;;;3.68;73.82;100117.06;5168833;28;20129;-92
2022/12/09 00:53:20;;;;;;;0.95;0.95;;;;;;;3.63;74.14;100117.09;5173609;28;20046;-88
2022/12/09 00:55:51;;;;;;;0.60;0.60;;;;;;;3.67;74.60;100116.22;5178026;28;20026;-90
2022/12/09 00:58:22;;;;;;;0.95;0.95;;;;;;;3.73;73.83;100118.75;5171780;28;20080;-91
2022/12/09 01:00:52;;;;;;;0.82;0.82;;;;;;;3.68;74.31;100115.31;5157185;28;20515;-90
2022/12/09 01:03:23;;;;;;;1.90;1.80;;;;;;;3.72;75.05;100116.16;5178406;28;20060;-90
2022/12/09 01:05:54;;;;;;;1.35;1.25;;;;;;;3.67;74.53;100117.94;5178735;28;20036;-90
2022/12/09 01:08:24;;;;;;;2.63;1.38;;;;;;;3.67;74.87;100116.22;5187431;28;20034;-90
2022/12/09 01:10:55;;;;;;;1.45;1.35;;;;;;;3.64;74.07;100115.38;5160384;28;20038;-90
2022/12/09 01:13:25;;;;;;;9.13;1.92;;;;;;;3.64;74.44;100111.03;5160404;28;20590;-90
2022/12/09 01:15:56;;;;;;;0.57;0.57;;;;;;;3.67;74.75;100116.22;5173262;28;20810;-90
2022/12/09 01:18:26;;;;;;;0.98;0.90;;;;;;;3.66;74.57;100114.50;5173778;28;20041;-91
2022/12/09 01:20:58;;;;;;;2.72;2.53;;;;;;;3.62;74.44;100118.84;5171922;28;20064;-91
2022/12/09 01:23:29;;;;;;;1.63;1.52;;;;;;;3.56;74.38;100108.50;5176338;28;20050;-90
2022/12/09 01:26:02;;;;;;;3.05;1.08;;;;;;;3.57;74.17;100109.38;5175051;28;20034;-90
2022/12/09 01:28:35;;;;;;;2.45;1.02;;;;;;;3.55;74.30;100117.16;5154495;28;20069;-91
2022/12/09 01:31:05;;;;;;;0.60;0.60;;;;;;;3.55;74.53;100118.88;5204107;28;20029;-90
2022/12/09 01:33:36;;;;;;;6.72;3.42;;;;;;;3.53;74.44;100120.63;5168515;28;20120;-90
2022/12/09 01:36:09;;;;;;;0.95;0.95;;;;;;;3.47;74.44;100130.19;5164109;28;20108;-90
2022/12/09 01:38:40;;;;;;;;;;;;;;;3.46;74.92;100128.47;5169599;28;20033;-91
2022/12/09 01:41:11;;;;;;;3.03;1.58;;;;;;;3.45;74.13;100129.34;5171446;28;20278;-91
2022/12/09 01:43:42;;;;;;;1.20;1.17;;;;;;;3.45;74.64;100138.84;5171477;28;20096;-91
2022/12/09 01:46:13;;;;;;;3.47;2.20;;;;;;;3.46;74.43;100130.22;5174109;28;20558;-90
2022/12/09 01:48:45;;;;;;;1.83;1.73;;;;;;;3.46;74.31;100130.22;5181832;28;20026;-90
2022/12/09 01:51:18;;;;;;;0.65;0.65;;;;;;;3.43;74.38;100138.84;5172646;28;20117;-91
2022/12/09 01:53:50;;;;;;;1.30;1.30;;;;;;;3.46;74.14;100127.63;5177635;28;20064;-90
2022/12/09 01:56:25;;;;;;;0.90;0.90;;;;;;;3.46;73.89;100131.06;5172799;28;20034;-91
2022/12/09 01:59:01;;;;;;;1.15;1.15;;;;;;;3.31;73.53;100123.38;5162871;28;20014;-91
2022/12/09 02:01:32;;;;;;;1.42;1.35;;;;;;;3.31;73.93;100124.22;5157820;28;20116;-90
2022/12/09 02:04:03;;;;;;;1.70;1.60;;;;;;;3.31;73.71;100128.56;5169086;28;20033;-90
2022/12/09 02:06:36;;;;;;;0.85;0.85;;;;;;;3.28;73.87;100128.59;5159617;28;20531;-90
2022/12/09 02:09:07;;;;;;;1.98;1.85;;;;;;;3.28;73.98;100121.69;5171902;28;20044;-90
2022/12/09 02:12:03;;;;;;;1.02;1.02;;;;;;;3.26;73.81;100120.81;5170628;28;20487;-90
2022/12/09 02:14:53;;;;;;;5.97;3.33;;;;;;;3.21;73.72;100116.53;5167803;28;20056;-90
2022/12/09 02:17:39;;;;;;;0.80;0.80;;;;;;;3.22;73.81;100119.13;5172030;28;20053;-89
2022/12/09 02:20:24;;;;;;;0.50;0.50;;;;;;;3.17;73.89;100112.25;5172078;28;20034;-91
2022/12/09 02:23:12;;;;;;;0.82;0.82;;;;;;;3.19;73.83;100103.59;5153816;28;20485;-90
2022/12/09 02:25:45;;;;;;;2.10;1.70;;;;;;;3.17;74.24;100107.91;5172568;28;20121;-90
2022/12/09 02:28:28;;;;;;;1.67;1.58;;;;;;;3.15;74.07;100107.06;5174658;28;20077;-90
2022/12/09 02:31:35;;;;;;;1.27;1.25;;;;;;;3.15;73.79;100101.88;5168890;28;20029;-90
2022/12/09 02:34:15;;;;;;;2.22;2.03;;;;;;;3.13;73.16;100099.31;5153712;28;20038;-90
2022/12/09 02:37:18;;;;;;;1.40;1.30;;;;;;;3.13;74.27;100098.44;5157809;28;20522;-91
2022/12/09 02:39:55;;;;;;;1.95;1.85;;;;;;;3.12;74.11;100094.13;5152430;28;20497;-90
2022/12/09 02:42:30;;;;;;;1.00;0.93;;;;;;;3.07;73.88;100095.88;5187812;28;20037;-90
2022/12/09 02:45:04;;;;;;;35.80;1.95;;;;;;;3.04;74.22;100103.69;5198435;28;20034;-90
2022/12/09 02:47:39;;;;;;;1.77;1.67;;;;;;;3.04;74.01;100094.16;5188572;28;20038;-90
2022/12/09 02:50:14;;;;;;;0.93;0.93;;;;;;;3.03;73.77;100092.44;5152433;28;20038;-90
2022/12/09 02:52:46;;;;;;;2.45;2.35;;;;;;;3.04;73.92;100098.50;5175633;28;20046;-91
2022/12/09 02:55:19;;;;;;;1.98;1.88;;;;;;;3.04;73.52;100096.75;5178568;28;20075;-90
2022/12/09 02:57:55;;;;;;;0.88;0.88;;;;;;;3.04;73.48;100096.75;5165310;28;20450;-90
2022/12/09 03:00:26;;;;;;;1.60;1.52;;;;;;;3.02;74.00;100098.50;5184352;28;20431;-91
2022/12/09 03:03:02;;;;;;;1.75;1.65;;;;;;;3.02;73.52;100097.66;5190260;28;20041;-91
2022/12/09 03:05:48;;;;;;;1.75;1.65;;;;;;;3.03;73.50;100100.22;5178211;28;20087;-90
2022/12/09 03:08:21;;;;;;;0.60;0.60;;;;;;;3.01;73.22;100096.81;5142855;28;20538;-90
2022/12/09 03:11:11;;;;;;;2.65;2.45;;;;;;;2.95;73.81;100089.91;5172997;28;20042;-92
2022/12/09 03:13:51;;;;;;;1.50;1.40;;;;;;;2.96;73.38;100091.66;5177304;28;20100;-89
2022/12/09 03:16:25;;;;;;;1.55;1.45;;;;;;;2.94;73.93;100082.13;5184447;28;20064;-90
2022/12/09 03:19:04;;;;;;;0.50;0.50;;;;;;;2.98;73.75;100084.69;5172232;28;20080;-91
2022/12/09 03:21:39;;;;;;;2.67;2.25;;;;;;;2.98;74.09;100087.28;5144449;28;20034;-91
2022/12/09 03:24:14;;;;;;;1.52;1.50;;;;;;;3.00;73.74;100082.13;5160015;28;20570;-90
2022/12/09 03:26:47;;;;;;;1.90;1.80;;;;;;;2.98;73.79;100078.66;5172171;28;20136;-90
2022/12/09 03:29:22;;;;;;;3.25;2.85;;;;;;;2.94;73.90;100080.41;5189673;28;20046;-91
2022/12/09 03:31:55;;;;;;;0.63;0.63;;;;;;;2.92;73.68;100083.91;5153394;28;20435;-90
2022/12/09 03:34:32;;;;;;;1.45;1.38;;;;;;;3.04;73.96;100076.03;5174477;28;20058;-90
2022/12/09 03:37:04;;;;;;;0.88;0.88;;;;;;;3.03;73.85;100071.72;5170338;28;20400;-91
2022/12/09 03:39:37;;;;;;;0.85;0.77;;;;;;;2.96;73.80;100072.63;5170128;28;21535;-90
2022/12/09 03:42:18;;;;;;;1.17;1.17;;;;;;;2.94;73.99;100066.59;5170697;28;20065;-88
2022/12/09 03:44:52;;;;;;;1.70;1.60;;;;;;;2.96;73.88;100075.22;5186662;28;20089;-90
2022/12/09 03:47:22;;;;;;;1.45;1.45;;;;;;;2.94;74.30;100066.59;5175207;28;20038;-91
2022/12/09 03:49:53;;;;;;;1.02;1.02;;;;;;;2.93;74.24;100070.06;5169971;28;20506;-91
2022/12/09 03:52:36;;;;;;;0.65;0.65;;;;;;;2.98;73.94;100063.97;5168573;28;20630;-90
2022/12/09 03:55:27;;;;;;;0.70;0.70;;;;;;;2.96;74.13;100070.03;5167344;28;20227;-90
2022/12/09 03:57:59;;;;;;;0.90;0.90;;;;;;;2.97;74.25;100057.09;5173759;28;20047;-89
2022/12/09 04:00:30;;;;;;;1.23;1.23;;;;;;;2.93;74.23;100059.72;5152534;28;20054;-90
2022/12/09 04:03:00;;;;;;;2.38;2.17;;;;;;;2.96;73.84;100063.13;5168399;28;20592;-90
2022/12/09 04:05:31;;;;;;;0.50;0.50;;;;;;;3.01;73.99;100052.75;5173977;28;20029;-90
2022/12/09 04:08:01;;;;;;;0.60;0.60;;;;;;;2.97;74.29;100057.09;5189694;28;20050;-91
2022/12/09 04:10:32;;;;;;;4.85;2.28;;;;;;;3.01;74.20;100063.09;5166973;28;20223;-90
2022/12/09 04:13:03;;;;;;;0.77;0.77;;;;;;;2.95;73.94;100061.41;5168108;28;20045;-90
2022/12/09 04:15:33;;;;;;;0.60;0.60;;;;;;;2.94;74.37;100057.09;5169449;28;20044;-90
2022/12/09 04:18:04;;;;;;;2.53;1.40;;;;;;;2.95;74.20;100057.94;5168879;28;20060;-90
2022/12/09 04:20:35;;;;;;;2.75;2.55;;;;;;;2.96;74.06;100055.38;5166734;28;20365;-90
2022/12/09 04:23:05;;;;;;;2.10;2.00;;;;;;;2.95;74.10;100057.94;5162855;28;20045;-91
2022/12/09 04:25:36;;;;;;;2.08;1.98;;;;;;;2.95;74.15;100057.94;5170739;28;20030;-90
2022/12/09 04:28:07;;;;;;;5.35;2.90;;;;;;;2.92;74.10;100052.81;5188435;28;20038;-90
2022/12/09 04:30:37;;;;;;;0.88;0.88;;;;;;;2.95;74.27;100050.16;5141042;28;20068;-90
2022/12/09 04:33:08;;;;;;;0.88;0.88;;;;;;;2.93;74.58;100054.53;5173463;28;20045;-90
2022/12/09 04:35:38;;;;;;;0.40;0.40;;;;;;;2.98;74.02;100056.19;5199118;28;20014;-91
2022/12/09 04:38:09;;;;;;;1.95;1.85;;;;;;;2.95;74.46;100050.16;5189255;28;20045;-90
2022/12/09 04:40:39;;;;;;;2.30;2.17;;;;;;;2.99;74.10;100050.13;5174126;28;20448;-90
2022/12/09 04:43:10;;;;;;;0.95;0.95;;;;;;;2.98;74.49;100047.56;5187327;28;20137;-89
2022/12/09 04:45:40;;;;;;;0.75;0.75;;;;;;;2.97;74.72;100049.31;5167788;28;20023;-89
2022/12/09 04:48:11;;;;;;;1.77;1.67;;;;;;;2.97;74.50;100045.84;5190395;28;20042;-90
2022/12/09 04:50:41;;;;;;;1.40;1.30;;;;;;;3.01;74.16;100052.75;5169364;28;20350;-91
2022/12/09 04:53:12;;;;;;;1.33;1.33;;;;;;;3.02;74.40;100048.41;5187698;28;20060;-89
2022/12/09 04:55:42;;;;;;;1.73;1.63;;;;;;;3.02;75.06;100053.59;5171189;28;20041;-89
2022/12/09 04:58:13;;;;;;;1.58;1.58;;;;;;;2.95;74.57;100052.75;5171989;28;20188;-91
2022/12/09 05:00:43;;;;;;;0.40;0.40;;;;;;;2.98;74.11;100047.56;5180393;28;20099;-90
2022/12/09 05:03:14;;;;;;;2.85;2.20;;;;;;;3.01;74.79;100051.88;5169802;28;20037;-90
2022/12/09 05:05:44;;;;;;;1.38;1.38;;;;;;;2.99;74.83;100049.28;5185236;28;20029;-90
2022/12/09 05:08:15;;;;;;;1.35;1.30;;;;;;;3.11;74.37;100049.19;5169584;28;20069;-90
2022/12/09 05:10:48;;;;;;;0.50;0.50;;;;;;;3.07;74.50;100044.91;5156283;28;20034;-89
2022/12/09 05:13:18;;;;;;;3.65;2.85;;;;;;;3.07;74.56;100052.69;5173472;28;20041;-89
2022/12/09 05:15:49;;;;;;;2.00;1.90;;;;;;;3.04;74.35;100046.66;5169663;28;20030;-90
2022/12/09 05:18:19;;;;;;;1.35;1.27;;;;;;;3.10;74.03;100039.69;5167276;28;20042;-91
2022/12/09 05:20:50;;;;;;;0.75;0.75;;;;;;;3.08;74.63;100044.03;5154623;28;20040;-90
2022/12/09 05:23:20;;;;;;;1.27;1.27;;;;;;;3.09;74.82;100039.72;5172273;28;20435;-90
2022/12/09 05:25:51;;;;;;;0.47;0.47;;;;;;;3.05;74.62;100038.88;5167339;28;20116;-91
2022/12/09 05:28:21;;;;;;;0.80;0.80;;;;;;;3.09;74.37;100044.91;5169575;28;20053;-90
2022/12/09 05:30:52;;;;;;;0.70;0.70;;;;;;;3.10;74.66;100037.09;5166918;28;20029;-90
2022/12/09 05:33:22;;;;;;;1.50;1.48;;;;;;;3.17;73.92;100032.72;5167313;28;20317;-90
2022/12/09 05:35:53;;;;;;;1.00;1.00;;;;;;;3.07;74.79;100026.78;5172114;28;20118;-89
2022/12/09 05:38:24;;;;;;;2.55;2.42;;;;;;;3.08;75.15;100028.50;5173365;28;20149;-89
2022/12/09 05:40:58;;;;;;;2.97;2.75;;;;;;;3.07;74.57;100026.78;5165552;28;20049;-90
2022/12/09 05:43:28;;;;;;;1.13;1.13;;;;;;;3.07;74.82;100024.19;5148123;28;20045;-83
2022/12/09 05:46:00;;;;;;;1.38;1.27;;;;;;;3.09;74.95;100024.16;5166282;28;20483;-82
2022/12/09 05:48:31;;;;;;;0.50;0.50;;;;;;;3.09;74.87;100024.16;5165408;28;20050;-84
2022/12/09 05:51:11;;;;;;;2.08;1.98;;;;;;;3.09;75.00;100025.03;5166648;28;20033;-84
2022/12/09 05:53:42;;;;;;;0.63;0.63;;;;;;;3.06;75.06;100025.03;5186082;28;20039;-83
2022/12/09 05:56:16;;;;;;;1.10;1.10;;;;;;;3.11;74.66;100028.44;5151443;28;20030;-84
2022/12/09 05:58:47;;;;;;;0.73;0.73;;;;;;;3.06;75.49;100030.22;5161703;28;20123;-83
2022/12/09 06:01:18;;;;;;;1.45;1.45;;;;;;;3.10;74.52;100031.91;5162890;28;20499;-82
2022/12/09 06:03:51;;;;;;;0.70;0.70;;;;;;;3.08;74.70;100027.63;5184722;28;20083;-84
2022/12/09 06:06:26;;;;;;;2.05;1.95;;;;;;;3.09;75.02;100026.75;5149343;28;20044;-85
2022/12/09 06:08:59;;;;;;;1.58;1.48;;;;;;;3.08;75.20;100023.31;5188304;28;20092;-86
2022/12/09 06:11:31;;;;;;;0.52;0.52;;;;;;;3.05;75.03;100018.13;5167528;28;20030;-83
2022/12/09 06:14:02;;;;;;;0.40;0.40;;;;;;;3.10;74.65;100018.09;5135516;28;20042;-83
2022/12/09 06:16:32;;;;;;;1.13;1.13;;;;;;;3.14;75.30;100022.41;5179204;28;20032;-84
2022/12/09 06:19:03;;;;;;;1.80;1.70;;;;;;;3.06;74.97;100019.88;5163039;28;20085;-83
2022/12/09 06:21:34;;;;;;;1.20;1.20;;;;;;;3.09;75.20;100011.19;5160876;28;20026;-83
2022/12/09 06:24:05;;;;;;;1.23;1.15;;;;;;;3.09;75.08;100012.06;5173244;28;20076;-85
2022/12/09 06:26:35;;;;;;;1.20;1.20;;;;;;;3.11;74.87;100004.28;5174460;28;20061;-84
2022/12/09 06:29:06;;;;;;;1.33;1.25;;;;;;;3.05;74.84;100012.09;5196813;28;20048;-84
2022/12/09 06:31:36;;;;;;;1.70;1.60;;;;;;;3.05;75.25;100005.19;5167840;28;20792;-83
2022/12/09 06:34:07;;;;;;;0.85;0.85;;;;;;;3.18;74.99;100003.34;5166399;28;20053;-85
2022/12/09 06:36:37;;;;;;;0.65;0.65;;;;;;;3.08;74.89;100012.94;5167232;28;20549;-85
2022/12/09 06:39:08;;;;;;;0.63;0.63;;;;;;;3.06;75.09;100003.47;5184338;28;20125;-84
2022/12/09 06:41:42;;;;;;;0.68;0.68;;;;;;;3.13;74.57;100008.56;5168232;28;20439;-83
2022/12/09 06:44:15;;;;;;;1.92;1.83;;;;;;;3.07;75.45;100011.22;5169031;28;20128;-85
2022/12/09 06:46:49;;;;;;;0.85;0.85;;;;;;;3.02;74.78;100009.53;5156067;28;20088;-85
2022/12/09 06:49:19;;;;;;;1.70;1.25;;;;;;;3.05;75.71;100007.78;5155613;28;20052;-86
2022/12/09 06:51:50;;;;;;;0.55;0.55;;;;;;;3.00;75.18;100009.56;5166064;28;20041;-85
2022/12/09 06:54:20;;;;;;;0.57;0.57;;;;;;;3.11;75.09;100010.31;5169885;28;20668;-86
2022/12/09 06:56:51;;;;;;;0.47;0.47;;;;;;;3.29;74.10;100013.63;5174128;28;20402;-85
2022/12/09 06:59:21;;;;;;;2.05;1.83;;;;;;;3.07;74.63;100010.34;5189213;28;20120;-86
2022/12/09 07:01:52;;;;;;;1.00;1.00;;;;;;;3.00;74.69;100014.72;5189728;28;20293;-86
2022/12/09 07:04:22;;;;;;;0.88;0.88;;;;;;;3.15;74.48;100017.22;5184448;28;20034;-86
2022/12/09 07:06:52;;;;;;;0.50;0.50;;;;;;;3.08;74.71;100017.25;5175959;28;20105;-86
2022/12/09 07:09:23;;;;;;;0.50;0.50;;;;;;;3.10;74.46;100025.88;5171653;28;20124;-85
2022/12/09 07:11:53;;;;;;;1.08;1.08;;;;;;;2.96;74.86;100018.19;5188262;28;20594;-85
2022/12/09 07:14:24;;;;;;;0.47;0.47;;;;;;;2.93;75.30;100018.25;5165839;28;20590;-85
2022/12/09 07:16:54;;;;;;;0.60;0.60;;;;;;;2.94;74.96;100018.22;5172397;28;20037;-85
2022/12/09 07:19:25;;;;;;;0.77;0.77;;;;;;;2.96;75.23;100020.78;5164236;28;20080;-86
2022/12/09 07:21:56;;;;;;;0.75;0.75;;;;;;;2.96;75.44;100025.97;5166394;28;20034;-85
2022/12/09 07:24:26;;;;;;;0.38;0.38;;;;;;;3.02;74.85;100031.09;5172209;28;20132;-84
2022/12/09 07:26:57;;;;;;;0.68;0.68;;;;;;;3.05;74.74;100033.69;5177534;28;20037;-84
2022/12/09 07:29:30;;;;;;;1.52;1.42;;;;;;;3.05;74.96;100038.03;5167175;28;20494;-85
2022/12/09 07:32:01;;;;;;;;;;;;;;;2.98;75.36;100035.47;5169667;28;20083;-86
2022/12/09 07:34:32;;;;;;;0.68;0.68;;;;;;;3.00;74.87;100035.47;5165817;28;19917;-85
2022/12/09 07:37:02;;;;;;;0.47;0.47;;;;;;;3.00;75.67;100027.69;5170189;28;20756;-85
2022/12/09 07:39:33;;;;;;;0.40;0.40;;;;;;;3.00;75.05;100035.47;5182106;28;20049;-85
2022/12/09 07:42:04;;;;;;;1.45;1.35;;;;;;;3.04;75.45;100042.34;5178129;28;20495;-86
2022/12/09 07:44:34;;;;;;;1.58;1.48;;;;;;;3.05;74.88;100038.03;5182667;28;20025;-86
2022/12/09 07:47:04;;;;;;;1.38;1.13;;;;;;;3.07;74.60;100037.13;5164402;28;20364;-85
2022/12/09 07:49:35;;;;;;;1.17;1.17;;;;;;;3.04;75.32;100039.75;5178085;28;20030;-85
2022/12/09 07:52:05;;;;;;;0.40;0.40;;;;;;;3.07;75.34;100037.13;5179010;28;20045;-84
2022/12/09 07:54:36;;;;;;;0.82;0.82;;;;;;;3.06;74.68;100035.41;5167010;28;20175;-85
2022/12/09 07:57:06;;;;;;;2.40;1.65;;;;;;;3.06;75.42;100034.56;5181804;28;20372;-84
2022/12/09 07:59:37;;;;;;;1.40;1.30;;;;;;;3.02;75.10;100033.69;5167040;28;20052;-85
2022/12/09 08:02:08;;;;;;;2.05;1.95;;;;;;;2.99;75.17;100044.09;5165992;28;20112;-86
2022/12/09 08:04:38;;;;;;;0.90;0.90;;;;;;;3.04;75.01;100044.09;5169136;28;20063;-86
2022/12/09 08:07:09;;;;;;;1.88;1.40;;;;;;;3.03;75.28;100050.97;5170716;28;20034;-85
2022/12/09 08:09:39;;;;;;;0.65;0.65;;;;;;;3.01;74.98;100050.16;5166017;28;20048;-84
2022/12/09 08:12:11;;;;;;;0.70;0.70;;;;;;;2.97;75.25;100046.72;5166414;28;20040;-85
2022/12/09 08:14:41;;;;;;;0.95;0.95;;;;;;;3.02;75.34;100063.97;5139766;28;20412;-84
2022/12/09 08:17:12;;;;;;;2.45;2.35;;;;;;;2.99;75.52;100060.50;5184790;28;20032;-83
2022/12/09 08:19:42;;;;;;;0.50;0.50;;;;;;;3.01;74.77;100059.63;5162566;28;20033;-84
2022/12/09 08:22:13;;;;;;;1.35;1.35;;;;;;;2.95;75.22;100065.72;5180085;28;20628;-83
2022/12/09 08:24:44;;;;;;;1.88;1.77;;;;;;;2.90;74.99;100064.91;5182702;28;20052;-84
2022/12/09 08:27:14;;;;;;;0.75;0.75;;;;;;;2.91;75.05;100061.44;5147487;28;20093;-83
2022/12/09 08:29:45;;;;;;;1.55;1.45;;;;;;;2.91;75.32;100066.63;5180232;28;20061;-82
2022/12/09 08:32:16;;;;;;;0.85;0.85;;;;;;;2.90;75.37;100063.16;5167801;28;20601;-83
2022/12/09 08:34:46;;;;;;;1.48;1.38;;;;;;;2.90;75.49;100064.91;5201797;28;20040;-83
2022/12/09 08:37:17;;;;;;;1.17;1.17;;;;;;;2.88;76.07;100057.16;5166006;28;20498;-81
2022/12/09 08:39:47;;;;;;;1.95;1.85;;;;;;;3.03;75.45;100048.38;5157011;28;20029;-83
2022/12/09 08:42:18;;;;;;;2.75;2.55;;;;;;;2.99;75.08;100057.06;5167753;28;20029;-82
2022/12/09 08:44:49;;;;;;;0.90;0.90;;;;;;;2.93;75.84;100055.38;5169859;28;20029;-82
2022/12/09 08:47:20;;;;;;;1.20;1.13;;;;;;;3.01;75.42;100047.56;5168578;28;20041;-82
2022/12/09 08:49:50;;;;;;;0.50;0.50;;;;;;;2.91;76.20;100057.09;5155320;28;20029;-80
2022/12/09 08:52:20;;;;;;;1.52;1.35;;;;;;;2.92;75.75;100053.66;5180049;28;20056;-80
2022/12/09 08:54:51;;;;;;;2.45;2.35;;;;;;;2.94;75.91;100053.63;5158699;28;20467;-81
2022/12/09 08:57:23;;;;;;;14.45;3.33;;;;;;;2.91;75.59;100051.06;5175021;28;20028;-81
2022/12/09 08:59:53;;;;;;;2.08;1.98;;;;;;;2.96;75.53;100057.94;5208965;28;20176;-82
2022/12/09 09:02:23;;;;;;;3.95;3.65;;;;;;;3.12;75.27;100050.06;5208245;28;20098;-84
2022/12/09 09:04:55;;;;;;;0.70;0.70;;;;;;;2.98;75.66;100052.75;5155181;28;20045;-83
2022/12/09 09:07:25;;;;;;;1.92;1.83;;;;;;;2.99;76.09;100050.13;5169051;28;20053;-83
2022/12/09 09:09:56;;;;;;;1.25;1.25;;;;;;;3.00;75.48;100056.19;5167810;28;20034;-85
2022/12/09 09:12:26;;;;;;;1.88;1.77;;;;;;;2.98;75.87;100048.41;5167567;28;20050;-84
2022/12/09 09:14:57;;;;;;;1.77;1.67;;;;;;;2.94;76.17;100064.88;5162887;28;20029;-83
2022/12/09 09:17:27;;;;;;;1.05;1.05;;;;;;;2.93;76.12;100062.31;5182180;28;20030;-83
2022/12/09 09:19:58;;;;;;;0.73;0.73;;;;;;;3.01;75.72;100065.69;5178598;28;20034;-84
2022/12/09 09:22:28;;;;;;;2.90;2.70;;;;;;;2.98;76.02;100063.13;5165980;28;20048;-84
2022/12/09 09:24:59;;;;;;;1.20;1.20;;;;;;;3.07;76.02;100060.47;5166972;28;20073;-84
2022/12/09 09:27:29;;;;;;;1.30;1.23;;;;;;;3.07;75.13;100064.78;5166814;28;20579;-82
2022/12/09 09:30:00;;;;;;;0.35;0.35;;;;;;;3.07;75.45;100073.44;5169111;28;20136;-84
2022/12/09 09:32:31;;;;;;;1.60;1.50;;;;;;;2.99;76.25;100068.28;5179776;28;20045;-84
2022/12/09 09:35:02;;;;;;;1.40;1.30;;;;;;;3.06;75.95;100063.94;5166001;28;20444;-82
2022/12/09 09:37:32;;;;;;;0.77;0.77;;;;;;;3.06;76.16;100076.03;5182848;28;20133;-82
2022/12/09 09:40:03;;;;;;;1.10;1.05;;;;;;;3.04;75.85;100068.25;5166109;28;20063;-82
2022/12/09 09:42:42;;;;;;;1.45;1.35;;;;;;;3.04;75.93;100070.00;5182292;28;20041;-82
2022/12/09 09:45:17;;;;;;;2.13;2.03;;;;;;;3.08;75.83;100072.56;5181782;28;20025;-83
2022/12/09 09:47:53;;;;;;;0.70;0.70;;;;;;;3.09;75.99;100068.22;5172275;28;20037;-81
2022/12/09 09:50:29;;;;;;;0.52;0.52;;;;;;;3.07;76.43;100070.84;5157285;28;20052;-83
2022/12/09 09:53:14;;;;;;;0.82;0.82;;;;;;;3.10;76.30;100063.03;5146322;28;20663;-82
2022/12/09 09:56:00;;;;;;;1.73;1.35;;;;;;;3.11;76.57;100062.16;5140024;28;20037;-83
2022/12/09 09:58:40;;;;;;;1.35;1.27;;;;;;;3.12;76.36;100065.63;5154554;28;20033;-83
2022/12/09 10:01:16;;;;;;;1.00;1.00;;;;;;;3.17;76.76;100060.41;5177700;28;20049;-82
2022/12/09 10:04:01;;;;;;;1.70;1.60;;;;;;;3.18;76.50;100064.72;5159981;28;20064;-81
2022/12/09 10:06:39;;;;;;;0.75;0.75;;;;;;;3.18;76.84;100059.53;5144700;28;20046;-82
2022/12/09 10:09:09;;;;;;;1.20;1.20;;;;;;;3.25;76.02;100058.63;5156558;28;20124;-82
2022/12/09 10:11:56;;;;;;;0.70;0.70;;;;;;;3.31;75.64;100055.97;5176187;28;20097;-81
2022/12/09 10:14:47;;;;;;;7.80;2.65;;;;;;;3.36;75.67;100058.53;5179947;28;20277;-82
2022/12/09 10:17:30;;;;;;;0.40;0.40;;;;;;;3.15;76.15;100063.88;5178519;28;20038;-82
2022/12/09 10:20:19;;;;;;;0.40;0.40;;;;;;;3.18;75.88;100054.34;5160601;28;20025;-82
2022/12/09 10:22:58;;;;;;;1.17;1.08;;;;;;;3.24;76.16;100054.31;5155138;28;20373;-82
2022/12/09 10:25:31;;;;;;;0.80;0.80;;;;;;;3.23;76.49;100049.97;5161684;28;20033;-82
2022/12/09 10:28:22;;;;;;;1.00;1.00;;;;;;;3.33;75.81;100048.16;5176962;28;20078;-82
2022/12/09 10:30:54;;;;;;;2.08;1.95;;;;;;;3.31;76.45;100050.78;5161295;28;20500;-83
2022/12/09 10:33:28;;;;;;;0.68;0.68;;;;;;;3.29;76.32;100047.34;5177513;28;20056;-81
2022/12/09 10:35:59;;;;;;;3.30;1.67;;;;;;;3.34;76.24;100045.59;5172718;28;20051;-81
2022/12/09 10:38:31;;;;;;;0.43;0.43;;;;;;;3.40;76.75;100050.72;5186591;28;20085;-80
2022/12/09 10:41:06;;;;;;;0.73;0.73;;;;;;;3.30;76.14;100039.56;5171187;28;20034;-81
2022/12/09 10:43:39;;;;;;;1.15;1.15;;;;;;;3.21;76.15;100038.75;5170191;28;20029;-80
2022/12/09 10:46:11;;;;;;;0.67;0.67;;;;;;;3.32;76.43;100031.75;5176123;28;20029;-79
2022/12/09 10:48:50;;;;;;;1.48;1.38;;;;;;;3.29;75.70;100031.78;5140395;28;20099;-80
2022/12/09 10:51:29;;;;;;;1.02;1.02;;;;;;;3.30;76.68;100033.50;5179856;28;20439;-79
2022/12/09 10:54:09;;;;;;;0.63;0.63;;;;;;;3.33;76.24;100037.78;5191477;28;20458;-81
2022/12/09 10:57:01;;;;;;;1.00;1.00;;;;;;;3.39;76.52;100043.81;5156324;28;20041;-82
2022/12/09 10:59:33;;;;;;;1.15;0.95;;;;;;;3.61;75.80;100031.50;5170493;28;20046;-79
2022/12/09 11:02:06;;;;;;;1.05;1.05;;;;;;;3.57;75.30;100031.53;5190145;28;20034;-82
2022/12/09 11:04:39;;;;;;;0.80;0.80;;;;;;;3.52;76.15;100025.53;5168447;28;20017;-79
2022/12/09 11:07:24;;;;;;;6.72;2.25;;;;;;;3.53;76.55;100032.44;5165829;28;20033;-80
2022/12/09 11:09:54;;;;;;;0.60;0.60;;;;;;;3.46;76.41;100026.47;5192791;28;20030;-80
2022/12/09 11:12:25;;;;;;;0.60;0.60;;;;;;;3.57;75.65;100027.19;5178744;28;20048;-79
2022/12/09 11:14:58;;;;;;;1.60;1.58;;;;;;;3.58;74.77;100033.28;5185149;28;20022;-80
2022/12/09 11:17:31;;;;;;;;;;;;;;;3.59;75.07;100029.81;5197091;28;20066;-80
2022/12/09 11:20:04;;;;;;;0.82;0.82;;;;;;;3.46;75.28;100029.91;5195704;28;20237;-80
2022/12/09 11:22:43;;;;;;;3.10;2.47;;;;;;;3.49;75.71;100022.97;5185667;28;20482;-79
2022/12/09 11:25:23;;;;;;;1.33;1.33;;;;;;;3.52;75.80;100017.75;5198260;28;20049;-80
2022/12/09 11:27:58;;;;;;;1.55;1.48;;;;;;;3.50;75.91;100019.50;5196135;28;20423;-80
2022/12/09 11:30:33;;;;;;;0.63;0.63;;;;;;;3.54;75.85;100014.28;5179159;28;20091;-82
2022/12/09 11:33:19;;;;;;;0.60;0.60;;;;;;;3.64;75.83;100015.03;5193183;28;20054;-80
2022/12/09 11:35:52;;;;;;;0.68;0.68;;;;;;;3.58;75.26;100021.16;5175937;28;20037;-80
2022/12/09 11:38:29;;;;;;;2.00;1.90;;;;;;;3.67;75.82;100011.56;5193578;28;20125;-79
2022/12/09 11:41:12;;;;;;;0.73;0.73;;;;;;;3.70;75.32;100014.97;5198817;28;20272;-79
2022/12/09 11:43:49;;;;;;;1.13;1.13;;;;;;;3.70;75.34;100014.13;5186902;28;20044;-81
2022/12/09 11:46:23;;;;;;;1.25;1.25;;;;;;;3.81;75.29;100011.41;5206952;28;20033;-79
2022/12/09 11:49:16;;;;;;;1.17;1.17;;;;;;;3.68;75.48;100011.53;5189053;28;20083;-79
2022/12/09 11:52:00;;;;;;;1.88;1.67;;;;;;;3.73;75.38;100012.34;5189188;28;20053;-80
2022/12/09 11:54:47;;;;;;;1.40;1.30;;;;;;;3.68;75.34;100008.09;5203740;28;20045;-79
2022/12/09 11:57:26;;;;;;;1.20;1.20;;;;;;;3.71;74.03;100010.66;5192354;28;20049;-82
2022/12/09 12:00:02;;;;;;;0.70;0.70;;;;;;;3.78;75.02;100004.53;5170433;28;20030;-80
2022/12/09 12:02:51;;;;;;;4.30;1.50;;;;;;;3.83;75.53;100007.06;5193943;28;20321;-80